Etusivu
METAR-TAF:

METAR-TAF

Lentoasemat :

Vamdrup

Kolding, Tanska

Leveyspiiri: 55-26N, Pituuspiiri: 009-20E, korkeus merenpinnasta: 44 m

Tämänhetkinen sää

Tämä raportti tehtiin 11 minuuttia sitten, kello 17.20 UTC
Tuuli 7 kn kaakosta
Lämpötila 19°C
Kosteus 49%
Ilmanpaine 1026 hPa

METAR: EKVD 201720Z AUTO 14007KT //// ///////// 19/08 Q1026

Aika: 19:31 (17:31 UTC)

Sääennuste

Tämä raportti tehtiin 8 tuntia ja 32 minuuttia sitten, kello 08.59 UTC
Ennuste voimassa 20. päivästä klo 09 UTC - 20. päivään klo 15 UTC
Tuuli 10 kn etelästä/kaakosta
Näkyvyys 10 km tai enemmän
ei pilviä alle 1500 m:ssä eikä cumulonimbus-pilviä

TAF: EKVD 200859Z 2009/2015 16010KT CAVOK

Säähavainnot ja -ennusteet yli 4000 lentoasemalta (METAR- ja TAF-raportit).

Käytössä olevat sääasemat on merkitty karttaan keltaisilla ja punaisilla pisteillä.

Aseta hiiri pisteen päälle nähdäksesi sääaseman nimen.

Klikkaa sitten nähdäksesi säähavainnot ja -ennusteet.

Kartan vaihtaminen: klikkaa mustalla rastilla varustettuja vihreitä pisteitä, niin voit zoomata sisään; viivalla varustettua vihreää pistettä, niin voit zoomata ulos tai vihreitä nuolia, niin pääset viereisille kartoille.


METAR-TAF: